createdAt,value
2022-09-20T00:01:24.058Z,14.50
2022-09-20T00:06:36.831Z,14.15
2022-09-20T00:09:05.374Z,14.73
2022-09-20T00:11:33.844Z,15.75
2022-09-20T00:14:02.166Z,16.10
2022-09-20T00:16:32.051Z,14.88
2022-09-20T00:19:00.263Z,14.13
2022-09-20T00:21:29.021Z,14.00
2022-09-20T00:23:57.712Z,15.27
2022-09-20T00:26:26.102Z,15.00
2022-09-20T00:28:53.145Z,14.07
2022-09-20T00:31:20.274Z,13.77
2022-09-20T00:34:05.597Z,13.43
2022-09-20T00:36:32.427Z,14.13
2022-09-20T00:39:01.097Z,14.90
2022-09-20T00:41:30.415Z,15.63
2022-09-20T00:43:57.599Z,16.27
2022-09-20T00:46:56.540Z,14.90
2022-09-20T00:49:27.989Z,14.85
2022-09-20T00:52:01.388Z,15.40
2022-09-20T00:54:30.657Z,16.40
2022-09-20T00:56:58.181Z,15.57
2022-09-20T00:59:34.891Z,16.13
2022-09-20T01:02:07.003Z,16.17
2022-09-20T01:04:36.085Z,16.02
2022-09-20T01:07:05.751Z,17.25
2022-09-20T01:09:32.310Z,15.85
2022-09-20T01:12:03.803Z,16.38
2022-09-20T01:14:30.725Z,16.30
2022-09-20T01:17:02.639Z,16.25
2022-09-20T01:19:31.936Z,16.52
2022-09-20T01:22:00.543Z,15.98
2022-09-20T01:24:42.698Z,16.50
2022-09-20T01:27:17.146Z,16.55
2022-09-20T01:30:03.451Z,15.65
2022-09-20T01:32:41.614Z,15.07
2022-09-20T01:35:09.955Z,14.77
2022-09-20T01:38:00.001Z,16.67
2022-09-20T01:40:39.011Z,16.17
2022-09-20T01:43:21.608Z,16.20
2022-09-20T01:45:49.804Z,15.70
2022-09-20T01:48:22.397Z,15.35
2022-09-20T01:51:26.723Z,14.48
2022-09-20T01:54:02.441Z,14.00
2022-09-20T01:56:53.112Z,13.10
2022-09-20T01:59:47.587Z,14.23
2022-09-20T02:02:23.111Z,13.38
2022-09-20T02:07:42.517Z,13.88
2022-09-20T02:10:32.510Z,13.30
2022-09-20T02:13:03.283Z,13.85
2022-09-20T02:15:48.078Z,13.95
2022-09-20T02:18:21.198Z,14.48
2022-09-20T02:20:58.388Z,14.23
2022-09-20T02:23:38.526Z,12.23
2022-09-20T02:26:23.716Z,13.73
2022-09-20T02:29:00.999Z,12.80
2022-09-20T02:31:53.484Z,14.00
2022-09-20T02:34:25.507Z,13.85
2022-09-20T02:37:10.801Z,14.60
2022-09-20T02:39:48.986Z,13.25
2022-09-20T02:42:29.750Z,14.15
2022-09-20T02:45:03.963Z,14.27
2022-09-20T02:47:44.030Z,15.00
2022-09-20T02:50:23.397Z,14.25
2022-09-20T02:52:50.041Z,13.23
2022-09-20T02:55:35.411Z,13.35
2022-09-20T02:58:23.756Z,13.35
2022-09-20T03:01:20.301Z,12.18
2022-09-20T03:04:05.724Z,12.80
2022-09-20T03:06:35.454Z,12.63
2022-09-20T03:09:35.154Z,12.77
2022-09-20T03:12:23.671Z,12.75
2022-09-20T03:15:16.344Z,13.80
2022-09-20T03:17:48.556Z,13.27
2022-09-20T03:20:21.938Z,12.70
2022-09-20T03:22:57.198Z,13.50
2022-09-20T03:25:46.318Z,13.90
2022-09-20T03:28:24.994Z,12.80
2022-09-20T03:31:09.889Z,13.30
2022-09-20T03:33:45.855Z,13.05
2022-09-20T03:36:25.943Z,14.13
2022-09-20T03:39:14.035Z,12.93
2022-09-20T03:41:59.402Z,12.52
2022-09-20T03:44:44.317Z,11.85
2022-09-20T03:47:33.171Z,11.68
2022-09-20T03:50:21.125Z,12.63
2022-09-20T03:53:06.441Z,12.55
2022-09-20T03:56:01.123Z,13.25
2022-09-20T03:58:52.839Z,13.05
2022-09-20T04:01:28.398Z,13.30
2022-09-20T04:04:14.251Z,13.57
2022-09-20T04:09:13.947Z,13.27
2022-09-20T04:11:59.801Z,14.20
2022-09-20T04:14:41.680Z,13.23
2022-09-20T04:17:20.709Z,13.93
2022-09-20T04:19:57.098Z,14.60
2022-09-20T04:22:27.502Z,13.90
2022-09-20T04:25:02.783Z,13.85
2022-09-20T04:27:39.388Z,13.88
2022-09-20T04:30:18.279Z,13.65
2022-09-20T04:33:13.438Z,15.68
2022-09-20T04:36:17.453Z,13.88
2022-09-20T04:38:48.473Z,13.25
2022-09-20T04:41:23.768Z,13.10
2022-09-20T04:44:15.223Z,12.68
2022-09-20T04:47:03.319Z,12.27
2022-09-20T04:49:50.383Z,13.68
2022-09-20T04:52:53.775Z,13.60
2022-09-20T04:55:46.127Z,13.07
2022-09-20T04:58:42.327Z,13.98
2022-09-20T05:01:23.424Z,14.20
2022-09-20T05:04:21.277Z,14.05
2022-09-20T05:07:09.030Z,13.82
2022-09-20T05:10:10.751Z,13.60
2022-09-20T05:12:54.610Z,11.88
2022-09-20T05:15:56.464Z,13.23
2022-09-20T05:18:33.312Z,13.57
2022-09-20T05:20:59.840Z,13.73
2022-09-20T05:23:55.386Z,12.68
2022-09-20T05:26:37.114Z,13.98
2022-09-20T05:29:24.701Z,12.25
2022-09-20T05:32:08.897Z,11.63
2022-09-20T05:34:46.396Z,12.52
2022-09-20T05:37:47.517Z,12.05
2022-09-20T05:40:39.457Z,11.40
2022-09-20T05:43:12.636Z,10.82
2022-09-20T05:46:05.499Z,10.80
2022-09-20T05:48:50.905Z,11.40
2022-09-20T05:51:39.533Z,11.10
2022-09-20T05:54:39.101Z,11.38
2022-09-20T05:57:16.945Z,10.25
2022-09-20T06:00:28.033Z,9.98
2022-09-20T06:03:21.722Z,10.80
2022-09-20T06:09:50.920Z,10.18
2022-09-20T06:12:59.974Z,8.30
2022-09-20T06:15:36.785Z,8.73
2022-09-20T06:18:38.918Z,9.38
2022-09-20T06:21:28.933Z,9.35
2022-09-20T06:24:01.248Z,9.50
2022-09-20T06:26:34.307Z,10.85
2022-09-20T06:29:05.771Z,9.60
2022-09-20T06:31:32.668Z,9.82
2022-09-20T06:34:08.256Z,11.50
2022-09-20T06:36:59.537Z,10.68
2022-09-20T06:40:11.393Z,10.23
2022-09-20T06:42:39.490Z,9.27
2022-09-20T06:45:08.122Z,8.85
2022-09-20T06:47:38.751Z,10.13
2022-09-20T06:50:07.534Z,9.63
2022-09-20T06:52:36.086Z,8.55
2022-09-20T06:55:07.791Z,9.43
2022-09-20T06:57:38.415Z,9.82
2022-09-20T07:00:07.430Z,9.27
2022-09-20T07:02:34.661Z,8.63
2022-09-20T07:05:01.945Z,9.55
2022-09-20T07:07:29.091Z,7.97
2022-09-20T07:09:56.201Z,7.63
2022-09-20T07:12:23.269Z,6.88
2022-09-20T07:14:51.026Z,7.18
2022-09-20T07:17:18.263Z,6.90
2022-09-20T07:19:45.351Z,6.03
2022-09-20T07:22:12.537Z,6.03
2022-09-20T07:24:41.048Z,5.70
2022-09-20T07:27:08.696Z,6.20
2022-09-20T07:29:35.763Z,5.65
2022-09-20T07:32:03.081Z,5.25
2022-09-20T07:34:30.349Z,6.00
2022-09-20T07:36:57.564Z,4.80
2022-09-20T07:39:24.358Z,5.50
2022-09-20T07:41:51.713Z,4.80
2022-09-20T07:44:24.849Z,4.85
2022-09-20T07:46:53.484Z,4.95
2022-09-20T07:49:22.493Z,6.90
2022-09-20T07:51:54.193Z,4.65
2022-09-20T07:54:21.472Z,4.32
2022-09-20T07:56:48.726Z,4.32
2022-09-20T07:59:16.518Z,4.25
2022-09-20T08:01:43.938Z,4.22
2022-09-20T08:04:11.917Z,4.50
2022-09-20T08:06:44.597Z,4.13
2022-09-20T08:10:35.243Z,4.03
2022-09-20T08:15:48.987Z,3.92
2022-09-20T08:18:17.690Z,4.35
2022-09-20T08:20:44.306Z,3.63
2022-09-20T08:23:23.333Z,4.00
2022-09-20T08:25:51.001Z,4.00
2022-09-20T08:28:17.664Z,3.85
2022-09-20T08:30:44.223Z,3.75
2022-09-20T08:33:13.270Z,4.38
2022-09-20T08:35:39.845Z,3.92
2022-09-20T08:40:59.916Z,3.40
2022-09-20T08:43:30.037Z,3.70
2022-09-20T08:45:59.850Z,3.78
2022-09-20T08:48:33.951Z,4.28
2022-09-20T08:51:05.690Z,4.65
2022-09-20T08:53:33.995Z,4.90
2022-09-20T08:56:01.542Z,4.43
2022-09-20T08:58:28.282Z,4.18
2022-09-20T09:00:59.127Z,4.97
2022-09-20T09:03:26.811Z,3.67
2022-09-20T09:05:55.076Z,3.85
2022-09-20T09:08:24.563Z,4.22
2022-09-20T09:10:58.228Z,4.00
2022-09-20T09:16:25.728Z,3.50
2022-09-20T09:21:26.012Z,3.10
2022-09-20T09:24:10.039Z,3.08
2022-09-20T09:29:15.670Z,3.50
2022-09-20T09:31:45.286Z,3.38
2022-09-20T09:34:24.338Z,3.60
2022-09-20T09:36:50.935Z,2.83
2022-09-20T09:39:25.763Z,2.97
2022-09-20T09:41:52.953Z,3.28
2022-09-20T09:44:28.021Z,4.07
2022-09-20T09:46:56.780Z,3.22
2022-09-20T09:49:24.984Z,3.13
2022-09-20T09:51:57.372Z,3.50
2022-09-20T09:54:28.427Z,3.45
2022-09-20T09:56:58.079Z,3.33
2022-09-20T09:59:40.322Z,3.80
2022-09-20T10:02:19.340Z,4.32
2022-09-20T10:05:05.934Z,3.67
2022-09-20T10:11:49.511Z,4.22
2022-09-20T10:14:34.283Z,4.35
2022-09-20T10:17:21.311Z,3.95
2022-09-20T10:20:05.489Z,3.80
2022-09-20T10:22:41.644Z,4.20
2022-09-20T10:25:25.351Z,4.03
2022-09-20T10:28:23.271Z,3.83
2022-09-20T10:31:16.728Z,4.20
2022-09-20T10:34:03.009Z,4.90
2022-09-20T10:36:44.603Z,3.70
2022-09-20T10:39:17.382Z,4.13
2022-09-20T10:42:31.806Z,3.87
2022-09-20T10:45:43.918Z,4.28
2022-09-20T10:48:42.742Z,4.53
2022-09-20T10:51:29.953Z,3.53
2022-09-20T10:54:21.347Z,3.58
2022-09-20T10:56:52.855Z,3.50
2022-09-20T10:59:19.415Z,4.88
2022-09-20T11:02:06.374Z,4.28
2022-09-20T11:04:45.476Z,4.05
2022-09-20T11:07:18.405Z,3.92
2022-09-20T11:10:00.615Z,3.45
2022-09-20T11:12:54.539Z,3.47
2022-09-20T11:15:26.201Z,3.65
2022-09-20T11:18:23.270Z,4.25
2022-09-20T11:21:04.477Z,4.35
2022-09-20T11:24:05.698Z,3.80
2022-09-20T11:26:40.027Z,4.18
2022-09-20T11:29:22.692Z,3.95
2022-09-20T11:31:53.163Z,3.30
2022-09-20T11:34:29.040Z,3.47
2022-09-20T11:36:58.970Z,3.55
2022-09-20T11:39:44.153Z,3.40
2022-09-20T11:42:25.753Z,2.53
2022-09-20T11:44:54.822Z,2.83
2022-09-20T11:47:49.765Z,2.90
2022-09-20T11:50:35.959Z,2.90
2022-09-20T11:53:05.531Z,2.40
2022-09-20T11:55:49.859Z,2.80
2022-09-20T11:58:20.843Z,2.40
2022-09-20T12:00:56.131Z,2.97
2022-09-20T12:03:37.549Z,3.47
2022-09-20T12:06:22.099Z,3.30
2022-09-20T12:08:52.736Z,3.60
2022-09-20T12:12:51.373Z,3.28
2022-09-20T12:15:39.746Z,3.50
2022-09-20T12:18:15.572Z,3.92
2022-09-20T12:20:42.661Z,3.75
2022-09-20T12:23:43.355Z,3.35
2022-09-20T12:26:15.658Z,2.80
2022-09-20T12:28:44.567Z,2.72
2022-09-20T12:31:29.286Z,2.90
2022-09-20T12:34:13.356Z,2.80
2022-09-20T12:39:16.220Z,2.35
2022-09-20T12:41:46.182Z,2.40
2022-09-20T12:44:40.707Z,2.10
2022-09-20T12:47:17.663Z,2.20
2022-09-20T12:50:06.135Z,2.53
2022-09-20T12:52:58.234Z,2.20
2022-09-20T12:55:30.862Z,2.35
2022-09-20T12:58:11.875Z,2.45
2022-09-20T13:00:47.555Z,2.55
2022-09-20T13:03:32.166Z,2.30
2022-09-20T13:06:09.672Z,2.05
2022-09-20T13:08:54.980Z,2.33
2022-09-20T13:11:44.744Z,2.38
2022-09-20T13:14:24.858Z,3.03
2022-09-20T13:16:56.815Z,3.08
2022-09-20T13:19:30.392Z,3.25
2022-09-20T13:22:02.833Z,3.22
2022-09-20T13:24:37.025Z,2.58
2022-09-20T13:27:08.909Z,2.40
2022-09-20T13:29:40.814Z,1.92
2022-09-20T13:32:27.464Z,1.60
2022-09-20T13:35:12.811Z,1.50
2022-09-20T13:37:51.709Z,1.60
2022-09-20T13:40:21.459Z,1.38
2022-09-20T13:42:50.351Z,1.55
2022-09-20T13:45:19.072Z,1.73
2022-09-20T13:47:50.902Z,1.63
2022-09-20T13:50:22.755Z,1.15
2022-09-20T13:52:54.070Z,1.20
2022-09-20T13:55:26.566Z,1.17
2022-09-20T13:57:56.775Z,1.35
2022-09-20T14:00:26.571Z,1.20
2022-09-20T14:02:57.562Z,1.00
2022-09-20T14:05:26.838Z,1.13
2022-09-20T14:07:54.164Z,1.52
2022-09-20T14:13:42.083Z,1.23
2022-09-20T14:16:10.140Z,1.42
2022-09-20T14:18:40.654Z,1.33
2022-09-20T14:21:11.735Z,1.63
2022-09-20T14:24:13.977Z,2.08
2022-09-20T14:26:42.314Z,1.55
2022-09-20T14:29:29.685Z,1.40
2022-09-20T14:31:59.557Z,1.33
2022-09-20T14:34:26.292Z,1.27
2022-09-20T14:37:05.417Z,1.40
2022-09-20T14:39:33.447Z,1.48
2022-09-20T14:42:00.023Z,1.50
2022-09-20T14:44:32.169Z,1.67
2022-09-20T14:46:59.844Z,1.42
2022-09-20T14:49:26.465Z,1.52
2022-09-20T14:51:53.777Z,1.90
2022-09-20T14:54:28.163Z,1.23
2022-09-20T14:56:57.558Z,1.48
2022-09-20T14:59:30.389Z,1.77
2022-09-20T15:02:01.947Z,2.00
2022-09-20T15:04:29.483Z,1.83
2022-09-20T15:07:00.293Z,1.70
2022-09-20T15:09:27.422Z,1.73
2022-09-20T15:12:07.521Z,1.85
2022-09-20T15:14:37.757Z,2.00
2022-09-20T15:17:05.358Z,1.80
2022-09-20T15:22:20.783Z,2.10
2022-09-20T15:24:47.540Z,2.92
2022-09-20T15:30:36.364Z,4.88
2022-09-20T15:33:03.318Z,4.47
2022-09-20T15:35:29.992Z,3.85
2022-09-20T15:37:56.640Z,3.03
2022-09-20T15:40:24.873Z,5.88
2022-09-20T15:42:55.973Z,6.20
2022-09-20T15:45:23.459Z,8.48
2022-09-20T15:47:50.074Z,8.18
2022-09-20T15:50:17.431Z,7.60
2022-09-20T15:52:44.014Z,5.80
2022-09-20T15:55:12.055Z,5.85
2022-09-20T15:57:40.389Z,5.45
2022-09-20T16:00:08.095Z,3.88
2022-09-20T16:02:34.672Z,2.65
2022-09-20T16:05:02.174Z,3.13
2022-09-20T16:07:28.820Z,3.08
2022-09-20T16:09:56.770Z,3.85
2022-09-20T16:14:39.641Z,3.22
2022-09-20T16:17:06.499Z,3.83
2022-09-20T16:19:33.369Z,3.33
2022-09-20T16:22:00.305Z,3.22
2022-09-20T16:24:29.569Z,3.67
2022-09-20T16:26:57.212Z,3.95
2022-09-20T16:29:25.756Z,4.20
2022-09-20T16:31:54.106Z,4.82
2022-09-20T16:34:28.530Z,7.57
2022-09-20T16:36:58.742Z,11.52
2022-09-20T16:39:29.021Z,7.53
2022-09-20T16:41:59.182Z,9.57
2022-09-20T16:44:26.040Z,10.35
2022-09-20T16:46:52.722Z,10.15
2022-09-20T16:49:19.325Z,19.52
2022-09-20T16:51:47.059Z,38.72
2022-09-20T16:54:15.932Z,94.32
2022-09-20T16:56:46.827Z,113.13
2022-09-20T16:59:15.930Z,93.55
2022-09-20T17:01:43.736Z,73.25
2022-09-20T17:04:13.590Z,46.30
2022-09-20T17:06:41.471Z,26.15
2022-09-20T17:09:08.349Z,15.18
2022-09-20T17:11:38.035Z,8.65
2022-09-20T17:14:05.786Z,7.85
2022-09-20T17:16:34.989Z,6.00
2022-09-20T17:19:09.785Z,5.78
2022-09-20T17:21:39.425Z,5.85
2022-09-20T17:24:07.262Z,6.28
2022-09-20T17:26:40.389Z,6.80
2022-09-20T17:29:09.550Z,6.43
2022-09-20T17:31:38.787Z,6.13
2022-09-20T17:34:07.891Z,5.95
2022-09-20T17:36:45.758Z,5.65
2022-09-20T17:39:14.293Z,5.07
2022-09-20T17:41:43.594Z,5.43
2022-09-20T17:44:12.073Z,4.80
2022-09-20T17:46:47.056Z,6.95
2022-09-20T17:49:16.032Z,6.93
2022-09-20T17:51:48.230Z,10.80
2022-09-20T17:54:15.807Z,12.60
2022-09-20T17:56:44.966Z,11.65
2022-09-20T17:59:12.723Z,9.75
2022-09-20T18:01:40.591Z,8.40
2022-09-20T18:04:08.671Z,7.25
2022-09-20T18:06:46.484Z,6.35
2022-09-20T18:09:21.999Z,6.40
2022-09-20T18:11:52.847Z,6.47
2022-09-20T18:15:34.428Z,6.63
2022-09-20T18:18:01.028Z,6.45
2022-09-20T18:20:28.396Z,6.35
2022-09-20T18:22:55.139Z,6.38
2022-09-20T18:25:24.127Z,6.28
2022-09-20T18:27:50.834Z,6.22
2022-09-20T18:30:18.290Z,6.32
2022-09-20T18:32:53.002Z,6.32
2022-09-20T18:35:19.716Z,6.43
2022-09-20T18:37:49.855Z,5.80
2022-09-20T18:40:16.606Z,6.18
2022-09-20T18:42:47.057Z,6.93
2022-09-20T18:45:13.967Z,6.15
2022-09-20T18:47:43.729Z,7.93
2022-09-20T18:50:13.148Z,6.40
2022-09-20T18:52:39.657Z,6.88
2022-09-20T18:55:11.525Z,7.80
2022-09-20T18:57:40.224Z,7.75
2022-09-20T19:00:10.176Z,8.00
2022-09-20T19:03:10.416Z,8.60
2022-09-20T19:05:59.350Z,8.10
2022-09-20T19:08:37.196Z,8.68
2022-09-20T19:11:26.069Z,8.25
2022-09-20T19:14:02.252Z,8.10
2022-09-20T19:16:34.361Z,8.93
2022-09-20T19:19:29.081Z,9.18
2022-09-20T19:22:05.502Z,10.57
2022-09-20T19:24:55.652Z,11.23
2022-09-20T19:27:23.485Z,11.48
2022-09-20T19:29:53.185Z,10.50
2022-09-20T19:32:33.461Z,11.15
2022-09-20T19:35:04.099Z,9.57
2022-09-20T19:37:41.370Z,10.65
2022-09-20T19:40:19.779Z,11.45
2022-09-20T19:43:28.233Z,12.07
2022-09-20T19:46:16.462Z,12.57
2022-09-20T19:48:54.617Z,11.57
2022-09-20T19:51:25.006Z,13.50
2022-09-20T19:53:56.118Z,11.60
2022-09-20T19:56:33.479Z,13.43
2022-09-20T19:59:00.310Z,14.57
2022-09-20T20:01:27.361Z,14.90
2022-09-20T20:03:56.014Z,14.48
2022-09-20T20:06:58.325Z,15.38
2022-09-20T20:09:50.398Z,14.85
2022-09-20T20:12:30.511Z,12.10
2022-09-20T20:17:11.357Z,13.70
2022-09-20T20:19:46.704Z,12.38
2022-09-20T20:22:58.480Z,11.27
2022-09-20T20:25:50.247Z,8.40
2022-09-20T20:28:16.798Z,8.32
2022-09-20T20:30:44.076Z,7.85
2022-09-20T20:33:15.901Z,8.05
2022-09-20T20:35:42.455Z,8.18
2022-09-20T20:38:10.733Z,8.73
2022-09-20T20:40:38.252Z,7.45
2022-09-20T20:43:06.219Z,8.90
2022-09-20T20:45:33.006Z,8.10
2022-09-20T20:47:59.708Z,7.30
2022-09-20T20:50:27.271Z,7.28
2022-09-20T20:52:55.763Z,7.38
2022-09-20T20:55:23.014Z,7.93
2022-09-20T20:57:59.634Z,7.32
2022-09-20T21:00:26.746Z,7.15
2022-09-20T21:02:58.584Z,6.53
2022-09-20T21:05:26.336Z,7.40
2022-09-20T21:07:53.200Z,8.10
2022-09-20T21:10:19.911Z,7.03
2022-09-20T21:12:46.575Z,7.78
2022-09-20T21:15:13.251Z,8.02
2022-09-20T21:17:39.848Z,7.65
2022-09-20T21:20:06.953Z,8.63
2022-09-20T21:22:33.922Z,9.30
2022-09-20T21:25:00.943Z,8.95
2022-09-20T21:27:29.777Z,7.70
2022-09-20T21:29:56.762Z,8.02
2022-09-20T21:32:23.266Z,8.63
2022-09-20T21:34:49.801Z,8.32
2022-09-20T21:37:16.301Z,8.80
2022-09-20T21:39:42.818Z,7.82
2022-09-20T21:42:09.376Z,8.80
2022-09-20T21:44:36.038Z,7.95
2022-09-20T21:47:02.587Z,7.85
2022-09-20T21:49:29.124Z,8.18
2022-09-20T21:51:55.629Z,9.18
2022-09-20T21:54:22.214Z,7.43
2022-09-20T21:56:50.052Z,8.18
2022-09-20T21:59:16.907Z,8.05
2022-09-20T22:01:43.459Z,8.95
2022-09-20T22:04:12.176Z,7.57
2022-09-20T22:06:41.279Z,7.97
2022-09-20T22:09:10.848Z,7.88
2022-09-20T22:11:40.080Z,7.47
2022-09-20T22:17:40.688Z,7.35
2022-09-20T22:20:07.683Z,7.88
2022-09-20T22:22:34.228Z,7.85
2022-09-20T22:25:00.880Z,7.70
2022-09-20T22:27:27.641Z,7.38
2022-09-20T22:29:54.280Z,7.32
2022-09-20T22:32:20.809Z,7.90
2022-09-20T22:34:47.352Z,7.68
2022-09-20T22:37:13.921Z,7.28
2022-09-20T22:39:41.679Z,7.20
2022-09-20T22:42:08.236Z,7.18
2022-09-20T22:44:34.746Z,6.85
2022-09-20T22:47:01.329Z,7.78
2022-09-20T22:49:27.840Z,7.40
2022-09-20T22:51:54.350Z,7.47
2022-09-20T22:54:20.860Z,8.30
2022-09-20T22:56:47.603Z,7.18
2022-09-20T22:59:14.808Z,7.80
2022-09-20T23:01:46.761Z,7.78
2022-09-20T23:04:19.045Z,6.82
2022-09-20T23:06:48.195Z,5.95
2022-09-20T23:09:16.576Z,7.95
2022-09-20T23:11:43.665Z,7.03
2022-09-20T23:14:15.776Z,6.22
2022-09-20T23:16:43.106Z,6.13
2022-09-20T23:19:10.919Z,7.05
2022-09-20T23:21:38.993Z,7.00
2022-09-20T23:24:08.766Z,6.35
2022-09-20T23:26:37.229Z,6.28
2022-09-20T23:29:09.531Z,6.63
2022-09-20T23:31:37.827Z,7.05
2022-09-20T23:34:06.486Z,7.15
2022-09-20T23:36:36.009Z,5.65
2022-09-20T23:39:02.767Z,6.80
2022-09-20T23:41:29.567Z,7.38
2022-09-20T23:43:56.729Z,6.75
2022-09-20T23:46:25.534Z,7.28
2022-09-20T23:48:52.764Z,7.60
2022-09-20T23:51:22.636Z,7.10
2022-09-20T23:53:49.902Z,7.32
2022-09-20T23:56:17.228Z,7.00
2022-09-20T23:58:44.130Z,7.18
